Salley, South Carolina
Current Conditions -  °F | °C
As of 11:35 AM on Thursday 30 Oct 2014 (Local Time) from KBNL Reporting Station
Clear Clear  
Wind Chill: 66°   Ceiling: Unl
Heat Index: 66°   Visibility: 10mi
Dew Point: 45°   Wind: 13mph
Humidity: 46%   Direction: 50°NE
Pressure: 30.04"   Gusts: 21mph
Location:  33.57°N, 81.3°W
Report Text: KBNL 301535Z AUTO 05011G18KT 10SM CLR 19/07 A3004 RMK AO2
Loading
Personal Weather Stations






























Interactive Weather Map
Tropical Storm Tracking
New forecast layout! Learn more

10-Day Weather Forecast

Advertisements
Track Severe Weather on mobile